createdAt,value
2022-09-06T00:00:08.955Z,18.84
2022-09-06T00:05:14.005Z,18.79
2022-09-06T00:10:16.064Z,18.71
2022-09-06T00:15:17.722Z,18.69
2022-09-06T00:20:19.406Z,18.64
2022-09-06T00:25:21.068Z,18.59
2022-09-06T00:30:23.230Z,18.55
2022-09-06T00:35:25.362Z,18.51
2022-09-06T00:40:29.393Z,18.45
2022-09-06T00:45:31.088Z,18.36
2022-09-06T00:50:32.818Z,18.36
2022-09-06T00:55:34.664Z,18.32
2022-09-06T01:00:36.550Z,18.33
2022-09-06T01:05:54.686Z,18.33
2022-09-06T01:11:03.625Z,18.32
2022-09-06T01:16:11.836Z,18.33
2022-09-06T01:21:49.273Z,18.27
2022-09-06T01:27:12.491Z,18.25
2022-09-06T01:32:40.111Z,18.18
2022-09-06T01:37:41.780Z,18.12
2022-09-06T01:42:43.431Z,18.08
2022-09-06T01:47:56.887Z,18.05
2022-09-06T01:53:22.581Z,18.01
2022-09-06T01:58:35.188Z,17.97
2022-09-06T02:03:41.210Z,17.94
2022-09-06T02:08:44.996Z,17.89
2022-09-06T02:13:50.658Z,17.85
2022-09-06T02:19:15.372Z,17.85
2022-09-06T02:24:20.033Z,17.83
2022-09-06T02:29:21.779Z,17.82
2022-09-06T02:34:23.454Z,17.79
2022-09-06T02:39:25.197Z,17.70
2022-09-06T02:44:26.975Z,17.70
2022-09-06T02:49:28.805Z,17.66
2022-09-06T02:54:31.193Z,17.58
2022-09-06T02:59:32.896Z,17.55
2022-09-06T03:04:34.572Z,17.53
2022-09-06T03:09:36.216Z,17.54
2022-09-06T03:14:37.885Z,17.48
2022-09-06T03:19:39.558Z,17.49
2022-09-06T03:24:41.227Z,17.44
2022-09-06T03:29:42.899Z,17.39
2022-09-06T03:34:44.575Z,17.37
2022-09-06T03:39:46.278Z,17.32
2022-09-06T03:44:48.021Z,17.26
2022-09-06T03:49:49.708Z,17.23
2022-09-06T03:54:51.415Z,17.19
2022-09-06T03:59:53.071Z,17.22
2022-09-06T04:04:55.578Z,17.21
2022-09-06T04:09:57.269Z,17.16
2022-09-06T04:14:58.937Z,17.19
2022-09-06T04:20:00.623Z,17.17
2022-09-06T04:25:03.065Z,17.12
2022-09-06T04:30:05.158Z,17.13
2022-09-06T04:35:07.203Z,17.12
2022-09-06T04:40:09.598Z,17.11
2022-09-06T04:45:11.345Z,17.13
2022-09-06T04:50:13.088Z,17.11
2022-09-06T04:55:14.837Z,17.07
2022-09-06T05:00:16.588Z,17.04
2022-09-06T05:05:18.244Z,17.04
2022-09-06T05:10:19.971Z,17.01
2022-09-06T05:15:22.094Z,16.95
2022-09-06T05:20:23.773Z,16.94
2022-09-06T05:25:25.516Z,16.88
2022-09-06T05:30:27.229Z,16.91
2022-09-06T05:35:28.912Z,16.93
2022-09-06T05:40:30.607Z,16.94
2022-09-06T05:45:32.308Z,16.92
2022-09-06T05:50:34.031Z,16.89
2022-09-06T05:55:37.498Z,16.92
2022-09-06T06:00:40.757Z,16.92
2022-09-06T06:05:47.074Z,16.94
2022-09-06T06:10:48.787Z,16.95
2022-09-06T06:15:50.454Z,17.01
2022-09-06T06:20:52.129Z,17.13
2022-09-06T06:25:54.238Z,17.16
2022-09-06T06:30:55.934Z,17.15
2022-09-06T06:36:05.225Z,17.23
2022-09-06T06:41:08.432Z,17.32
2022-09-06T06:46:15.125Z,17.48
2022-09-06T06:51:18.675Z,17.48
2022-09-06T06:56:27.071Z,17.53
2022-09-06T07:01:30.069Z,17.55
2022-09-06T07:11:53.949Z,17.62
2022-09-06T07:16:58.571Z,17.65
2022-09-06T07:22:04.396Z,17.71
2022-09-06T07:32:31.019Z,17.88
2022-09-06T07:37:32.650Z,17.95
2022-09-06T07:42:36.640Z,18.00
2022-09-06T07:58:13.557Z,18.11
2022-09-06T08:03:15.227Z,18.16
2022-09-06T08:13:38.628Z,18.23
2022-09-06T08:18:40.312Z,18.38
2022-09-06T08:23:45.722Z,18.48
2022-09-06T08:28:47.421Z,18.56
2022-09-06T08:33:49.069Z,18.65
2022-09-06T08:38:50.726Z,18.69
2022-09-06T08:49:52.906Z,18.67
2022-09-06T08:55:22.054Z,18.67
2022-09-06T09:00:23.797Z,18.81
2022-09-06T09:05:30.485Z,18.92
2022-09-06T09:10:54.781Z,19.02
2022-09-06T09:15:56.480Z,18.94
2022-09-06T09:20:58.617Z,18.93
2022-09-06T09:26:18.889Z,18.88
2022-09-06T09:31:33.164Z,18.83
2022-09-06T09:36:34.976Z,18.84
2022-09-06T09:41:38.390Z,18.81
2022-09-06T09:46:40.173Z,18.86
2022-09-06T09:51:43.170Z,18.85
2022-09-06T09:56:52.425Z,18.86
2022-09-06T10:01:56.181Z,19.04
2022-09-06T10:07:17.775Z,19.25
2022-09-06T10:12:29.255Z,19.43
2022-09-06T10:17:49.278Z,19.66
2022-09-06T10:23:06.519Z,19.87
2022-09-06T10:28:28.202Z,20.02
2022-09-06T10:33:52.463Z,20.17
2022-09-06T10:38:59.301Z,20.36
2022-09-06T10:44:32.243Z,20.62
2022-09-06T10:49:33.921Z,20.87
2022-09-06T10:54:36.352Z,21.13
2022-09-06T10:59:51.523Z,21.26
2022-09-06T11:10:27.157Z,21.65
2022-09-06T11:15:31.212Z,21.83
2022-09-06T11:20:39.190Z,22.01
2022-09-06T11:26:14.821Z,22.21
2022-09-06T11:37:07.066Z,22.22
2022-09-06T11:42:09.880Z,22.14
2022-09-06T11:47:11.552Z,22.09
2022-09-06T11:53:09.084Z,22.23
2022-09-06T11:58:21.223Z,22.31
2022-09-06T12:09:11.724Z,22.48
2022-09-06T12:14:31.760Z,22.52
2022-09-06T12:19:43.889Z,22.70
2022-09-06T12:24:45.932Z,23.10
2022-09-06T12:29:58.416Z,23.38
2022-09-06T12:40:22.980Z,25.20
2022-09-06T12:45:27.436Z,26.18
2022-09-06T12:50:31.464Z,26.71
2022-09-06T12:55:37.041Z,27.00
2022-09-06T13:00:44.263Z,27.38
2022-09-06T13:05:45.927Z,27.71
2022-09-06T13:10:47.641Z,27.98
2022-09-06T13:15:49.413Z,28.07
2022-09-06T13:21:14.105Z,28.23
2022-09-06T13:26:15.821Z,28.42
2022-09-06T13:31:17.462Z,28.60
2022-09-06T13:36:22.166Z,28.74
2022-09-06T13:41:26.471Z,28.69
2022-09-06T13:46:28.181Z,28.86
2022-09-06T13:51:29.851Z,29.11
2022-09-06T13:56:31.689Z,29.24
2022-09-06T14:01:33.628Z,29.29
2022-09-06T14:06:36.900Z,30.00
2022-09-06T14:11:39.174Z,30.33
2022-09-06T14:16:40.866Z,30.34
2022-09-06T14:21:43.268Z,30.57
2022-09-06T14:26:44.934Z,30.66
2022-09-06T14:31:48.325Z,31.01
2022-09-06T14:36:50.092Z,31.24
2022-09-06T14:41:52.094Z,31.11
2022-09-06T14:46:54.523Z,31.30
2022-09-06T14:51:56.165Z,31.54
2022-09-06T14:56:57.839Z,31.74
2022-09-06T15:01:59.537Z,31.58
2022-09-06T15:07:01.266Z,31.37
2022-09-06T15:12:03.166Z,31.07
2022-09-06T15:17:08.738Z,30.89
2022-09-06T15:22:10.392Z,30.66
2022-09-06T15:27:12.143Z,30.58
2022-09-06T15:32:13.823Z,30.20
2022-09-06T15:37:15.505Z,29.85
2022-09-06T15:42:17.164Z,29.62
2022-09-06T15:47:18.832Z,29.63
2022-09-06T15:52:20.570Z,29.58
2022-09-06T15:57:22.259Z,29.56
2022-09-06T16:02:23.975Z,29.42
2022-09-06T16:07:25.826Z,29.26
2022-09-06T16:12:27.524Z,29.30
2022-09-06T16:17:31.138Z,28.98
2022-09-06T16:22:32.966Z,28.76
2022-09-06T16:27:34.669Z,28.70
2022-09-06T16:32:36.346Z,28.32
2022-09-06T16:37:38.030Z,28.06
2022-09-06T16:42:39.702Z,27.82
2022-09-06T16:47:41.576Z,27.60
2022-09-06T16:52:43.249Z,27.38
2022-09-06T16:57:44.924Z,27.15
2022-09-06T17:02:47.736Z,26.85
2022-09-06T17:07:49.663Z,26.61
2022-09-06T17:12:51.329Z,26.42
2022-09-06T17:17:52.992Z,26.23
2022-09-06T17:22:54.714Z,25.79
2022-09-06T17:27:57.987Z,25.36
2022-09-06T17:32:59.679Z,24.91
2022-09-06T17:38:01.416Z,24.56
2022-09-06T17:43:05.011Z,24.25
2022-09-06T17:48:06.757Z,23.99
2022-09-06T17:53:08.444Z,23.78
2022-09-06T17:58:10.120Z,23.57
2022-09-06T18:03:11.785Z,23.36
2022-09-06T18:08:13.456Z,23.12
2022-09-06T18:13:15.130Z,22.93
2022-09-06T18:18:18.037Z,22.75
2022-09-06T18:23:20.067Z,22.50
2022-09-06T18:28:21.737Z,22.30
2022-09-06T18:33:23.778Z,22.12
2022-09-06T18:38:25.571Z,21.96
2022-09-06T18:43:31.553Z,21.78
2022-09-06T18:48:33.708Z,21.61
2022-09-06T18:53:36.075Z,21.48
2022-09-06T18:58:37.818Z,21.32
2022-09-06T19:03:39.766Z,21.22
2022-09-06T19:08:41.767Z,21.06
2022-09-06T19:13:44.341Z,20.95
2022-09-06T19:18:46.117Z,20.85
2022-09-06T19:23:53.906Z,20.75
2022-09-06T19:28:57.820Z,20.67
2022-09-06T19:33:59.527Z,20.51
2022-09-06T19:39:05.126Z,20.44
2022-09-06T19:44:08.965Z,20.38
2022-09-06T19:49:10.911Z,20.28
2022-09-06T19:54:12.682Z,20.19
2022-09-06T19:59:14.780Z,20.11
2022-09-06T20:04:16.497Z,20.00
2022-09-06T20:09:18.325Z,19.92
2022-09-06T20:14:20.016Z,19.85
2022-09-06T20:19:21.718Z,19.75
2022-09-06T20:24:23.443Z,19.68
2022-09-06T20:29:25.116Z,19.64
2022-09-06T20:34:26.800Z,19.57
2022-09-06T20:39:29.008Z,19.51
2022-09-06T20:44:30.965Z,19.45
2022-09-06T20:49:32.636Z,19.40
2022-09-06T20:54:34.304Z,19.34
2022-09-06T20:59:35.976Z,19.29
2022-09-06T21:04:37.693Z,19.23
2022-09-06T21:09:39.367Z,19.16
2022-09-06T21:14:41.023Z,19.11
2022-09-06T21:19:42.839Z,19.04
2022-09-06T21:24:44.898Z,18.99
2022-09-06T21:29:47.012Z,18.95
2022-09-06T21:34:48.679Z,18.89
2022-09-06T21:39:50.366Z,18.84
2022-09-06T21:44:52.040Z,18.78
2022-09-06T21:49:53.784Z,18.76
2022-09-06T21:54:55.441Z,18.71
2022-09-06T21:59:57.107Z,18.64
2022-09-06T22:04:58.783Z,18.62
2022-09-06T22:10:00.439Z,18.55
2022-09-06T22:15:02.098Z,18.55
2022-09-06T22:20:08.402Z,18.54
2022-09-06T22:25:10.081Z,18.50
2022-09-06T22:30:12.122Z,18.46
2022-09-06T22:35:13.967Z,18.41
2022-09-06T22:40:15.663Z,18.39
2022-09-06T22:45:17.341Z,18.34
2022-09-06T22:50:19.001Z,18.29
2022-09-06T22:55:20.678Z,18.26
2022-09-06T23:00:22.384Z,18.23
2022-09-06T23:05:24.064Z,18.19
2022-09-06T23:10:25.753Z,18.16
2022-09-06T23:15:27.815Z,18.10
2022-09-06T23:20:29.495Z,18.05
2022-09-06T23:25:31.188Z,18.00
2022-09-06T23:30:33.022Z,17.93
2022-09-06T23:35:34.683Z,17.90
2022-09-06T23:40:37.354Z,17.84
2022-09-06T23:45:39.028Z,17.76
2022-09-06T23:50:40.735Z,17.72
2022-09-06T23:55:42.471Z,17.72
